Rossie, Iowa
Current Conditions -  °F | °C
As of 4:53 AM on Wednesday 26 Nov 2014 (Local Time) from KSPW Reporting Station
Haze Haze  
Wind Chill: 20°   Ceiling: 700
Heat Index: 28°   Visibility: 5mi
Dew Point: 26°   Wind: 8mph
Humidity: 92%   Direction: 110°ESE
Pressure: 29.87"   Gusts: NA
Location:  43.0463°N, 95.2692°W
Report Text: KSPW 261053Z AUTO 11007KT 5SM UP BR OVC007 M02/M03 A2987 RMK AO2 UPB46SNE21 SLP131 P0000 T10221033 TSNO
Loading
Personal Weather Stations






























Interactive Weather Map New forecast layout! Learn more

10-Day Weather Forecast

Advertisements
Track Severe Weather on mobile